Accueil
METAR-TAF:

METAR-TAF

Aéroports :

Farnborough, Angleterre

latitude: 51-17N, longitude: 000-46W, altitude: 65 m

Observation

Le bulletin a été fait il y a 18 minutes, à 05:50 UTC
Vent 2 kt de sud
Température -4°C
Humidité 93%
Pression 1024 hPa
Visibilité: 6000 m

METAR: EGLF 080550Z AUTO 19002KT 6000 NCD M04/M05 Q1024

Heure: 06:08 (06:08 UTC)

Prévision

Le bulletin a été fait il y a 13 heures et 12 minutes, à 16:56 UTC
Prévision valable du 07 à 18 UTC au 07 à 20 UTC
Vent 4 kt de nord/nord-est
Visibilité 10 km ou plus
Nuages épars à une hauteur de 4000 ft

TAF: EGLF 071656Z 0718/0720 03004KT 9999 SCT040

Observations et prévisions météorologiques de plus de 4000 aéroports (messages METAR et TAF).

Les stations disponibles sont représentées par des disques jaunes et rouges sur la carte.

Passer la souris dessus pour voir le nom de la station.

Cliquer dessus pour voir les observations et prévisions météorologiques.

Pour changer de carte: cliquez sur les boutons verts avec une croix noire pour zoomer, sur le bouton vert avec un tiret pour effectuer un zoom arrière, ou sur les flèches vertes pour les cartes adjacentes.


METAR-TAF: